Time;durP1;ratioP1;P1;durP2;ratioP2;P2;SDS_P1;SDS_P2;PMS_P1;PMS_P2;Temp;Humidity;BMP_temperature;BMP_pressure;BME280_temperature;BME280_humidity;BME280_pressure;Samples;Min_cycle;Max_cycle;Signal;HPM_P1;HPM_P2
2022/01/06 00:00:48;;;;;;;0.85;0.50;;;;;;;20.60;34.83;98921.88;1864608;75;28103;-72
2022/01/06 00:03:37;;;;;;;0.40;0.40;;;;;;;20.61;35.64;98928.45;1878909;75;28153;-74
2022/01/06 00:06:25;;;;;;;0.60;0.60;;;;;;;20.70;35.71;98926.76;1868938;76;28123;-75
2022/01/06 00:09:16;;;;;;;0.50;0.50;;;;;;;20.70;35.78;98920.73;1853833;75;28143;-73
2022/01/06 00:12:04;;;;;;;0.60;0.60;;;;;;;20.75;35.77;98926.33;1872939;75;28108;-72
2022/01/06 00:15:00;;;;;;;0.50;0.50;;;;;;;20.73;35.83;98930.36;1876620;75;28226;-72
2022/01/06 00:23:54;;;;;;;0.50;0.50;;;;;;;20.75;35.97;98929.61;1888824;75;33508;-73
2022/01/06 00:26:45;;;;;;;0.55;0.55;;;;;;;20.72;36.01;98925.98;1855438;75;28160;-72
2022/01/06 00:29:35;;;;;;;0.50;0.50;;;;;;;20.78;36.04;98933.22;1883130;75;28153;-72
2022/01/06 00:32:23;;;;;;;0.50;0.50;;;;;;;20.77;36.00;98926.11;1882112;75;28129;-73
2022/01/06 00:35:12;;;;;;;0.60;0.60;;;;;;;20.79;36.02;98933.53;1883104;75;28560;-73
2022/01/06 00:38:01;;;;;;;1.05;0.50;;;;;;;20.81;36.00;98934.12;1863911;75;38534;-73
2022/01/06 00:40:49;;;;;;;0.45;0.45;;;;;;;20.86;35.98;98946.53;1874575;75;28083;-72
2022/01/06 00:43:37;;;;;;;0.60;0.60;;;;;;;20.82;35.97;98947.52;1896779;75;28320;-72
2022/01/06 00:46:26;;;;;;;0.53;0.53;;;;;;;20.84;35.99;98962.31;1888846;75;28059;-72
2022/01/06 00:49:16;;;;;;;0.40;0.40;;;;;;;20.84;36.01;98945.38;1900447;75;28168;-72
2022/01/06 00:52:04;;;;;;;0.70;0.60;;;;;;;20.84;36.03;98962.31;1890977;75;28113;-73
2022/01/06 00:54:53;;;;;;;0.70;0.57;;;;;;;20.83;36.03;98969.67;1880271;75;28043;-73
2022/01/06 00:57:41;;;;;;;0.40;0.40;;;;;;;20.81;36.06;98965.51;1879061;75;28261;-72
2022/01/06 01:00:38;;;;;;;0.70;0.70;;;;;;;20.86;36.09;98968.36;1878059;75;28143;-72
2022/01/06 01:03:23;;;;;;;0.60;0.60;;;;;;;20.82;36.06;98967.19;1873851;75;28095;-74
2022/01/06 01:06:11;;;;;;;0.60;0.42;;;;;;;20.83;36.12;98978.38;1900619;75;28139;-73
2022/01/06 01:09:00;;;;;;;0.50;0.50;;;;;;;20.84;36.10;98983.59;1886617;75;28068;-72
2022/01/06 01:11:48;;;;;;;0.40;0.40;;;;;;;20.86;36.13;98991.05;1898813;75;28047;-74
2022/01/06 01:15:04;;;;;;;0.40;0.40;;;;;;;20.84;36.10;98999.17;1877157;75;28763;-73
2022/01/06 01:17:42;;;;;;;0.47;0.47;;;;;;;20.86;36.18;98998.39;1882322;75;28110;-73
2022/01/06 01:20:33;;;;;;;0.40;0.40;;;;;;;20.80;36.16;99000.68;1884530;75;28189;-73
2022/01/06 01:23:23;;;;;;;0.50;0.50;;;;;;;20.83;36.20;99009.77;1896894;75;28164;-73
2022/01/06 01:26:13;;;;;;;0.60;0.60;;;;;;;20.82;36.21;99013.03;1901460;75;28189;-72
2022/01/06 01:29:03;;;;;;;0.90;0.50;;;;;;;20.82;36.21;99005.40;1899521;75;28155;-73
2022/01/06 01:31:54;;;;;;;0.95;0.40;;;;;;;20.84;36.25;99020.45;1868766;75;28138;-73
2022/01/06 01:34:44;;;;;;;0.50;0.50;;;;;;;20.85;36.23;99026.75;1879190;75;28172;-73
2022/01/06 01:37:33;;;;;;;0.42;0.42;;;;;;;20.86;36.22;99033.88;1887451;75;28587;-72
2022/01/06 01:40:22;;;;;;;0.53;0.53;;;;;;;20.90;36.23;99046.83;1887991;75;28103;-73
2022/01/06 01:43:11;;;;;;;0.40;0.40;;;;;;;20.89;36.22;99051.14;1872793;75;28056;-72
2022/01/06 01:46:08;;;;;;;0.42;0.42;;;;;;;20.87;36.26;99054.64;1888996;75;28189;-72
2022/01/06 01:49:11;;;;;;;0.50;0.50;;;;;;;20.88;36.28;99053.06;1881701;75;28228;-73
2022/01/06 01:51:40;;;;;;;0.53;0.40;;;;;;;20.86;36.31;99055.72;1889275;75;28066;-73
2022/01/06 01:54:29;;;;;;;0.55;0.55;;;;;;;20.83;36.38;99058.38;1870825;75;28122;-72
2022/01/06 01:57:17;;;;;;;0.40;0.40;;;;;;;20.84;36.40;99055.13;1889938;75;28091;-71
2022/01/06 02:00:08;;;;;;;0.35;0.35;;;;;;;20.87;36.38;99056.00;1895341;75;28086;-72
2022/01/06 02:02:59;;;;;;;0.50;0.50;;;;;;;20.84;36.40;99057.86;1884949;75;28177;-73
2022/01/06 02:05:47;;;;;;;0.50;0.50;;;;;;;20.83;36.45;99054.29;1884467;75;28087;-72
2022/01/06 02:08:37;;;;;;;0.65;0.60;;;;;;;20.80;36.53;99055.27;1901144;75;28103;-72
2022/01/06 02:11:25;;;;;;;0.62;0.45;;;;;;;20.88;36.50;99059.05;1878490;75;28200;-74
2022/01/06 02:14:14;;;;;;;0.50;0.50;;;;;;;20.86;36.49;99063.91;1892378;74;28099;-73
2022/01/06 02:17:02;;;;;;;0.40;0.40;;;;;;;20.89;36.45;99064.79;1871388;75;28153;-72
2022/01/06 02:19:57;;;;;;;0.40;0.40;;;;;;;20.86;36.50;99067.48;1900687;75;28100;-73
2022/01/06 02:22:47;;;;;;;0.50;0.50;;;;;;;20.88;36.53;99066.71;1868636;76;28128;-73
2022/01/06 02:25:36;;;;;;;0.57;0.57;;;;;;;20.82;36.62;99079.91;1879624;75;28126;-74
2022/01/06 02:28:24;;;;;;;0.50;0.50;;;;;;;20.86;36.57;99074.31;1901258;75;28166;-73
2022/01/06 02:31:14;;;;;;;0.42;0.42;;;;;;;20.84;36.61;99067.41;1889283;75;28044;-72
2022/01/06 02:34:02;;;;;;;0.40;0.40;;;;;;;20.85;36.60;99070.42;1866850;75;28135;-72
2022/01/06 02:36:50;;;;;;;0.53;0.53;;;;;;;20.84;36.61;99078.33;1866698;75;28189;-69
2022/01/06 02:39:40;;;;;;;0.42;0.42;;;;;;;20.90;36.60;99076.02;1879780;75;28060;-69
2022/01/06 02:42:30;;;;;;;0.50;0.50;;;;;;;20.86;36.66;99085.22;1868902;75;28150;-67
2022/01/06 02:45:20;;;;;;;0.40;0.40;;;;;;;20.92;36.58;99082.08;1871965;75;28096;-67
2022/01/06 02:48:09;;;;;;;0.75;0.50;;;;;;;20.88;36.69;99081.73;1866257;75;28052;-67
2022/01/06 02:50:58;;;;;;;0.50;0.50;;;;;;;20.88;36.71;99083.62;1872927;75;28215;-67
2022/01/06 02:53:48;;;;;;;0.30;0.30;;;;;;;20.88;36.71;99088.55;1877829;75;28169;-67
2022/01/06 02:56:38;;;;;;;0.50;0.50;;;;;;;20.88;36.73;99082.25;1857156;77;28166;-67
2022/01/06 02:59:27;;;;;;;0.68;0.40;;;;;;;20.89;36.72;99086.63;1877138;75;38385;-67
2022/01/06 03:02:15;;;;;;;0.53;0.30;;;;;;;20.84;36.79;99073.68;1867843;75;33009;-68
2022/01/06 03:05:06;;;;;;;0.33;0.33;;;;;;;20.89;36.75;99083.90;1882799;75;28146;-68
2022/01/06 03:07:55;;;;;;;0.40;0.40;;;;;;;20.86;36.83;99076.20;1869107;76;28199;-68
2022/01/06 03:10:46;;;;;;;0.35;0.33;;;;;;;20.89;36.79;99090.72;1877899;75;28217;-69
2022/01/06 03:13:34;;;;;;;0.85;0.50;;;;;;;20.90;36.75;99076.86;1880703;75;28096;-68
2022/01/06 03:16:24;;;;;;;0.40;0.40;;;;;;;20.90;36.72;99086.41;1867736;75;28196;-68
2022/01/06 03:19:12;;;;;;;0.40;0.40;;;;;;;20.95;36.73;99088.44;1876426;75;28557;-68
2022/01/06 03:22:02;;;;;;;0.50;0.50;;;;;;;20.90;36.75;99089.14;1876074;75;28167;-68
2022/01/06 03:24:51;;;;;;;0.60;0.60;;;;;;;20.90;36.74;99081.48;1899782;75;28095;-68
2022/01/06 03:27:41;;;;;;;0.30;0.30;;;;;;;20.90;36.78;99082.84;1886749;75;28058;-67
2022/01/06 03:30:30;;;;;;;0.30;0.30;;;;;;;20.91;36.77;99085.33;1899864;75;27984;-68
2022/01/06 03:33:19;;;;;;;0.40;0.25;;;;;;;20.92;36.81;99088.91;1875135;75;28205;-67
2022/01/06 03:36:08;;;;;;;0.40;0.40;;;;;;;20.93;36.80;99087.84;1890156;75;28170;-67
2022/01/06 03:38:58;;;;;;;0.43;0.40;;;;;;;20.91;36.79;99082.60;1896099;75;28052;-67
2022/01/06 03:41:47;;;;;;;0.50;0.50;;;;;;;20.90;36.82;99094.61;1879492;75;28056;-68
2022/01/06 03:44:35;;;;;;;0.40;0.40;;;;;;;20.93;36.82;99096.05;1879563;75;28275;-68
2022/01/06 03:47:23;;;;;;;0.40;0.40;;;;;;;20.92;36.81;99098.45;1869010;76;28098;-67
2022/01/06 03:50:14;;;;;;;0.47;0.45;;;;;;;20.91;36.84;99106.37;1890317;75;28201;-69
2022/01/06 03:53:03;;;;;;;0.80;0.40;;;;;;;20.91;36.81;99096.81;1876707;75;28193;-67
2022/01/06 03:55:51;;;;;;;0.40;0.40;;;;;;;20.94;36.80;99104.52;1888664;75;28595;-68
2022/01/06 03:58:40;;;;;;;0.40;0.37;;;;;;;20.90;36.82;99100.59;1885898;75;28144;-67
2022/01/06 04:01:28;;;;;;;0.60;0.42;;;;;;;20.89;36.86;99101.64;1868836;76;28091;-68
2022/01/06 04:04:17;;;;;;;0.70;0.40;;;;;;;20.89;36.82;99107.11;1884705;75;28151;-67
2022/01/06 04:07:05;;;;;;;0.37;0.37;;;;;;;20.88;36.91;99104.09;1901693;75;28063;-67
2022/01/06 04:09:54;;;;;;;0.50;0.50;;;;;;;20.90;36.84;99110.98;1896254;75;28095;-68
2022/01/06 04:12:44;;;;;;;1.10;0.40;;;;;;;20.88;36.90;99117.22;1868921;76;28233;-67
2022/01/06 04:15:32;;;;;;;0.50;0.47;;;;;;;20.91;36.88;99126.28;1893092;75;28317;-68
2022/01/06 04:18:21;;;;;;;0.53;0.53;;;;;;;20.91;36.90;99125.48;1888143;75;28166;-68
2022/01/06 04:21:10;;;;;;;0.50;0.50;;;;;;;20.90;36.88;99127.37;1885192;75;28158;-68
2022/01/06 04:23:58;;;;;;;0.30;0.30;;;;;;;20.88;36.92;99118.58;1890852;75;28138;-68
2022/01/06 04:26:47;;;;;;;0.40;0.40;;;;;;;20.87;36.93;99130.55;1890738;75;28225;-68
2022/01/06 04:29:36;;;;;;;0.33;0.33;;;;;;;20.89;36.90;99120.23;1889490;75;28193;-67
2022/01/06 04:32:24;;;;;;;0.37;0.37;;;;;;;20.90;36.91;99126.00;1868708;76;28138;-67
2022/01/06 04:35:13;;;;;;;0.40;0.40;;;;;;;20.89;36.96;99124.84;1880699;75;28233;-67
2022/01/06 04:38:01;;;;;;;0.80;0.47;;;;;;;20.90;36.94;99128.73;1881738;75;28076;-67
2022/01/06 04:40:49;;;;;;;0.40;0.40;;;;;;;20.91;36.96;99126.28;1872370;75;28095;-68
2022/01/06 04:43:38;;;;;;;0.98;0.50;;;;;;;20.91;36.96;99129.57;1868854;76;28191;-66
2022/01/06 04:46:26;;;;;;;0.47;0.47;;;;;;;20.93;36.94;99122.81;1890721;75;28210;-68
2022/01/06 04:49:14;;;;;;;0.50;0.50;;;;;;;20.90;36.91;99130.09;1878344;75;28095;-68
2022/01/06 04:52:03;;;;;;;0.50;0.50;;;;;;;20.90;37.02;99126.53;1873980;75;28126;-67
2022/01/06 04:54:51;;;;;;;0.88;0.37;;;;;;;20.93;36.92;99128.28;1868538;76;28139;-68
2022/01/06 04:57:40;;;;;;;0.40;0.40;;;;;;;20.93;36.96;99128.80;1878663;75;28099;-67
2022/01/06 05:00:28;;;;;;;1.30;0.40;;;;;;;20.94;36.95;99138.64;1900167;75;28099;-70
2022/01/06 05:03:17;;;;;;;0.40;0.40;;;;;;;20.93;36.94;99142.45;1874712;75;28206;-67
2022/01/06 05:06:06;;;;;;;0.35;0.33;;;;;;;20.92;36.99;99147.60;1867873;75;28104;-68
2022/01/06 05:08:55;;;;;;;0.40;0.40;;;;;;;20.93;37.01;99150.64;1862910;75;28087;-68
2022/01/06 05:11:44;;;;;;;0.50;0.50;;;;;;;20.93;36.98;99147.39;1889313;75;28173;-68
2022/01/06 05:14:32;;;;;;;0.47;0.35;;;;;;;20.91;36.99;99154.14;1885799;75;28220;-67
2022/01/06 05:17:21;;;;;;;0.25;0.20;;;;;;;20.95;36.99;99158.06;1866604;75;28186;-68
2022/01/06 05:20:10;;;;;;;0.50;0.45;;;;;;;20.93;37.01;99155.58;1888930;75;28100;-68
2022/01/06 05:22:59;;;;;;;0.40;0.40;;;;;;;20.98;37.01;99160.34;1901395;75;28176;-68
2022/01/06 05:25:47;;;;;;;0.40;0.40;;;;;;;20.96;37.00;99171.48;1901704;75;28099;-67
2022/01/06 05:28:36;;;;;;;0.40;0.40;;;;;;;20.95;37.02;99173.09;1901400;75;28157;-70
2022/01/06 05:31:24;;;;;;;0.40;0.40;;;;;;;20.97;37.04;99173.68;1900078;75;28010;-69
2022/01/06 05:34:13;;;;;;;0.30;0.30;;;;;;;20.96;37.02;99173.37;1880392;75;28161;-68
2022/01/06 05:37:01;;;;;;;0.28;0.17;;;;;;;20.97;37.00;99170.95;1868782;76;28111;-68
2022/01/06 05:39:50;;;;;;;0.40;0.40;;;;;;;20.98;37.01;99165.80;1880369;75;28133;-68
2022/01/06 05:42:38;;;;;;;0.37;0.37;;;;;;;20.98;37.02;99172.63;1856935;77;28151;-68
2022/01/06 05:45:28;;;;;;;0.50;0.50;;;;;;;20.96;37.03;99163.81;1899409;75;28158;-68
2022/01/06 05:48:16;;;;;;;0.40;0.40;;;;;;;20.98;37.01;99180.82;1901266;75;28120;-68
2022/01/06 05:51:05;;;;;;;0.40;0.40;;;;;;;21.02;36.96;99186.11;1873940;75;28614;-68
2022/01/06 05:53:54;;;;;;;0.35;0.35;;;;;;;21.05;36.98;99188.42;1868215;75;28136;-68
2022/01/06 05:56:43;;;;;;;0.35;0.35;;;;;;;20.98;36.93;99178.09;1884303;75;28129;-68
2022/01/06 05:59:32;;;;;;;0.50;0.50;;;;;;;21.01;36.95;99183.06;1879693;75;28080;-68
2022/01/06 06:02:22;;;;;;;0.30;0.30;;;;;;;21.00;36.96;99194.55;1895001;75;28134;-68
2022/01/06 06:05:12;;;;;;;0.37;0.37;;;;;;;21.02;36.97;99194.30;1889240;75;28088;-69
2022/01/06 06:08:00;;;;;;;0.30;0.30;;;;;;;21.03;36.99;99187.76;1857256;77;28177;-69
2022/01/06 06:10:48;;;;;;;0.40;0.40;;;;;;;21.04;36.94;99193.53;1865368;75;28092;-69
2022/01/06 06:13:37;;;;;;;0.30;0.30;;;;;;;21.05;36.87;99204.25;1900583;75;28148;-69
2022/01/06 06:16:25;;;;;;;0.40;0.40;;;;;;;21.02;36.91;99197.88;1856999;77;28147;-68
2022/01/06 06:19:13;;;;;;;0.27;0.27;;;;;;;21.03;36.93;99201.41;1868293;75;28132;-68
2022/01/06 06:22:02;;;;;;;0.35;0.35;;;;;;;21.03;36.92;99206.88;1879819;75;28168;-70
2022/01/06 06:24:50;;;;;;;0.40;0.40;;;;;;;21.07;36.83;99202.67;1869859;75;28239;-68
2022/01/06 06:27:39;;;;;;;1.00;0.40;;;;;;;21.07;36.79;99204.88;1886024;75;28228;-68
2022/01/06 06:30:28;;;;;;;0.37;0.37;;;;;;;21.09;36.82;99216.40;1867319;75;28011;-68
2022/01/06 06:33:17;;;;;;;0.30;0.30;;;;;;;21.10;36.75;99213.11;1889207;75;28057;-67
2022/01/06 06:36:06;;;;;;;0.50;0.50;;;;;;;21.09;36.77;99210.09;1883274;75;28162;-67
2022/01/06 06:38:54;;;;;;;0.45;0.45;;;;;;;21.10;36.72;99210.38;1891728;74;28080;-68
2022/01/06 06:41:42;;;;;;;0.23;0.23;;;;;;;21.10;36.73;99211.75;1904926;74;28567;-68
2022/01/06 06:44:31;;;;;;;0.50;0.50;;;;;;;21.07;36.76;99214.44;1898281;74;27949;-69
2022/01/06 06:47:20;;;;;;;0.70;0.40;;;;;;;21.07;36.74;99219.06;1905042;74;27957;-68
2022/01/06 06:50:12;;;;;;;0.37;0.37;;;;;;;21.06;36.76;99218.22;1898621;74;28010;-69
2022/01/06 06:53:02;;;;;;;0.40;0.40;;;;;;;21.06;36.70;99213.28;1881768;74;28146;-67
2022/01/06 06:55:51;;;;;;;0.90;0.50;;;;;;;21.08;36.72;99211.98;1900136;74;28127;-69
2022/01/06 06:58:39;;;;;;;0.30;0.30;;;;;;;21.04;36.67;99218.11;1907593;74;28140;-69
2022/01/06 07:01:29;;;;;;;0.53;0.53;;;;;;;21.07;36.50;99223.16;1876441;76;28123;-70
2022/01/06 07:04:18;;;;;;;0.40;0.40;;;;;;;21.05;36.42;99222.55;1885212;74;28102;-69
2022/01/06 07:07:06;;;;;;;1.30;0.68;;;;;;;21.04;36.26;99235.86;1887887;74;28104;-69
2022/01/06 07:09:55;;;;;;;0.50;0.50;;;;;;;21.07;36.18;99236.81;1907307;74;28224;-69
2022/01/06 07:12:45;;;;;;;0.70;0.50;;;;;;;21.06;36.14;99236.49;1887306;74;28161;-69
2022/01/06 07:15:38;;;;;;;0.50;0.50;;;;;;;21.08;36.04;99237.94;1906489;74;28094;-70
2022/01/06 07:18:26;;;;;;;1.30;0.50;;;;;;;21.05;35.94;99228.02;1880350;74;28437;-70
2022/01/06 07:21:14;;;;;;;0.60;0.60;;;;;;;21.13;35.84;99248.16;1891860;74;33032;-70
2022/01/06 07:24:02;;;;;;;1.20;0.60;;;;;;;21.14;35.79;99252.58;1880348;74;28189;-70
2022/01/06 07:26:51;;;;;;;0.50;0.50;;;;;;;21.13;35.74;99255.83;1902861;74;28079;-70
2022/01/06 07:29:40;;;;;;;0.60;0.50;;;;;;;21.14;35.71;99256.11;1905990;74;28091;-68
2022/01/06 07:32:29;;;;;;;0.50;0.50;;;;;;;21.10;35.74;99265.00;1907480;74;28114;-75
2022/01/06 07:35:22;;;;;;;0.50;0.50;;;;;;;21.04;35.79;99266.77;1885573;74;28712;-70
2022/01/06 07:38:11;;;;;;;0.53;0.50;;;;;;;21.03;35.85;99259.59;1902516;74;28224;-69
2022/01/06 07:41:01;;;;;;;0.82;0.55;;;;;;;21.03;35.96;99263.70;1868722;76;28096;-73
2022/01/06 07:43:50;;;;;;;0.60;0.60;;;;;;;21.05;36.05;99262.16;1884566;75;28184;-70
2022/01/06 07:46:42;;;;;;;1.30;0.70;;;;;;;21.05;36.19;99274.44;1878231;75;28080;-75
2022/01/06 07:49:32;;;;;;;0.78;0.78;;;;;;;21.01;36.30;99271.29;1882017;75;28159;-75
2022/01/06 07:52:21;;;;;;;1.32;0.75;;;;;;;21.03;36.50;99277.87;1888744;75;28160;-75
2022/01/06 07:55:12;;;;;;;1.65;0.70;;;;;;;21.07;36.56;99272.31;1889197;75;28131;-75
2022/01/06 07:58:00;;;;;;;0.90;0.90;;;;;;;21.09;36.55;99277.01;1892132;75;28124;-75
2022/01/06 08:00:49;;;;;;;1.00;0.55;;;;;;;21.12;36.64;99279.29;1872446;75;28097;-75
2022/01/06 08:03:39;;;;;;;1.00;0.65;;;;;;;21.08;36.70;99276.17;1883190;75;28228;-74
2022/01/06 08:06:27;;;;;;;1.40;0.60;;;;;;;21.12;36.71;99277.37;1868547;76;28196;-74
2022/01/06 08:09:17;;;;;;;0.88;0.62;;;;;;;21.13;36.80;99286.40;1890380;75;28271;-75
2022/01/06 08:12:06;;;;;;;0.70;0.68;;;;;;;21.12;36.82;99287.48;1893037;75;28165;-77
2022/01/06 08:14:54;;;;;;;1.30;0.60;;;;;;;21.13;36.92;99292.70;1882930;75;28235;-75
2022/01/06 08:17:44;;;;;;;0.78;0.60;;;;;;;21.13;36.98;99294.59;1880524;75;28183;-75
2022/01/06 08:20:35;;;;;;;0.60;0.60;;;;;;;21.13;37.08;99300.05;1872769;75;28120;-75
2022/01/06 08:23:26;;;;;;;0.85;0.60;;;;;;;21.13;37.08;99302.27;1890605;75;28149;-75
2022/01/06 08:26:16;;;;;;;0.70;0.53;;;;;;;21.12;37.11;99307.97;1885644;75;28107;-75
2022/01/06 08:29:05;;;;;;;0.72;0.70;;;;;;;21.13;37.19;99302.79;1869478;75;28311;-75
2022/01/06 08:31:53;;;;;;;2.50;0.70;;;;;;;21.14;37.14;99299.81;1869060;76;28145;-75
2022/01/06 08:34:41;;;;;;;1.00;0.60;;;;;;;21.10;37.29;99311.43;1872172;75;28199;-76
2022/01/06 08:37:30;;;;;;;0.60;0.60;;;;;;;21.10;37.30;99306.81;1887322;74;28120;-75
2022/01/06 08:40:19;;;;;;;0.60;0.60;;;;;;;21.09;37.32;99302.43;1872124;75;28157;-74
2022/01/06 08:43:08;;;;;;;0.80;0.60;;;;;;;21.10;37.37;99308.70;1890540;75;28173;-75
2022/01/06 08:45:58;;;;;;;0.83;0.70;;;;;;;21.04;37.40;99308.23;1865523;75;28060;-75
2022/01/06 08:48:47;;;;;;;0.50;0.50;;;;;;;21.12;37.47;99317.52;1889060;75;28220;-74
2022/01/06 08:51:35;;;;;;;0.60;0.60;;;;;;;21.16;37.44;99314.63;1868814;76;28240;-74
2022/01/06 08:54:24;;;;;;;1.05;0.60;;;;;;;21.13;37.41;99322.75;1896503;75;28142;-75
2022/01/06 08:57:12;;;;;;;0.80;0.67;;;;;;;21.13;37.47;99328.21;1867760;75;28155;-76
2022/01/06 09:00:02;;;;;;;1.50;0.60;;;;;;;21.11;37.46;99331.70;1876649;75;28174;-74
2022/01/06 09:02:50;;;;;;;0.60;0.60;;;;;;;21.14;37.49;99338.61;1857171;77;28120;-75
2022/01/06 09:05:40;;;;;;;0.65;0.60;;;;;;;21.10;37.53;99341.47;1861363;75;28184;-76
2022/01/06 09:08:28;;;;;;;1.10;0.57;;;;;;;21.10;37.54;99333.28;1901370;75;28220;-75
2022/01/06 09:11:18;;;;;;;0.60;0.60;;;;;;;21.11;37.54;99334.44;1883890;75;28228;-75
2022/01/06 09:14:08;;;;;;;0.60;0.60;;;;;;;21.12;37.56;99331.19;1897047;75;28057;-76
2022/01/06 09:16:58;;;;;;;1.20;0.70;;;;;;;21.14;37.51;99331.78;1882095;75;28056;-75
2022/01/06 09:19:47;;;;;;;0.93;0.70;;;;;;;21.11;37.54;99330.86;1890166;75;28127;-77
2022/01/06 09:22:38;;;;;;;1.10;0.50;;;;;;;21.10;37.56;99329.19;1857047;77;30160;-75
2022/01/06 09:25:27;;;;;;;0.80;0.53;;;;;;;21.12;37.48;99331.19;1887440;75;28096;-75
2022/01/06 09:28:15;;;;;;;1.00;0.60;;;;;;;21.09;37.48;99322.91;1886148;75;28071;-75
2022/01/06 09:31:04;;;;;;;0.72;0.70;;;;;;;21.09;37.55;99332.47;1900225;75;35146;-75
2022/01/06 09:33:52;;;;;;;0.65;0.45;;;;;;;21.09;37.47;99332.47;1879578;75;28156;-75
2022/01/06 09:36:42;;;;;;;0.53;0.53;;;;;;;21.11;37.54;99326.25;1882505;75;28144;-74
2022/01/06 09:39:31;;;;;;;0.75;0.57;;;;;;;21.11;37.44;99325.41;1898922;75;28104;-76
2022/01/06 09:42:20;;;;;;;0.53;0.53;;;;;;;21.12;37.41;99329.27;1886557;75;28174;-76
2022/01/06 09:45:10;;;;;;;0.60;0.60;;;;;;;21.13;37.36;99328.73;1875732;75;28128;-76
2022/01/06 09:47:59;;;;;;;0.53;0.53;;;;;;;21.12;37.35;99328.45;1890294;75;28204;-75
2022/01/06 09:50:47;;;;;;;0.60;0.60;;;;;;;21.14;37.33;99337.25;1868843;75;28151;-75
2022/01/06 09:53:36;;;;;;;1.50;0.70;;;;;;;21.15;37.27;99338.89;1901540;75;34586;-76
2022/01/06 09:56:26;;;;;;;0.62;0.50;;;;;;;21.13;37.32;99339.14;1890682;75;28154;-76
2022/01/06 09:59:16;;;;;;;0.60;0.60;;;;;;;21.12;37.33;99332.55;1890074;75;28208;-75
2022/01/06 10:02:05;;;;;;;0.60;0.60;;;;;;;21.11;37.37;99326.25;1890457;75;28233;-76
2022/01/06 10:05:02;;;;;;;1.00;0.57;;;;;;;21.12;37.36;99325.72;1885159;75;28184;-74
2022/01/06 10:07:53;;;;;;;0.50;0.50;;;;;;;21.12;37.36;99327.89;1881150;75;35158;-75
2022/01/06 10:10:42;;;;;;;0.57;0.50;;;;;;;21.12;37.28;99324.35;1894568;75;28196;-75
2022/01/06 10:13:32;;;;;;;0.50;0.50;;;;;;;21.13;37.32;99326.00;1888309;75;28267;-75
2022/01/06 10:16:23;;;;;;;1.30;0.60;;;;;;;21.11;37.32;99324.03;1885818;75;28150;-74
2022/01/06 10:19:15;;;;;;;0.50;0.50;;;;;;;21.13;37.34;99326.00;1878848;75;28169;-75
2022/01/06 10:22:04;;;;;;;0.80;0.50;;;;;;;21.08;37.37;99321.75;1888631;75;28282;-75
2022/01/06 10:24:55;;;;;;;0.50;0.50;;;;;;;21.11;37.37;99330.86;1880686;75;28179;-75
2022/01/06 10:27:46;;;;;;;0.70;0.70;;;;;;;21.11;37.37;99326.77;1868722;76;28099;-75
2022/01/06 10:30:34;;;;;;;0.53;0.53;;;;;;;21.10;37.41;99330.55;1868383;76;28220;-74
2022/01/06 10:33:27;;;;;;;4.40;0.70;;;;;;;21.11;37.43;99334.96;1892520;75;28086;-75
2022/01/06 10:36:16;;;;;;;0.60;0.60;;;;;;;21.11;37.37;99336.33;1899823;75;28241;-75
2022/01/06 10:39:08;;;;;;;0.65;0.60;;;;;;;21.12;37.40;99333.36;1886075;75;28126;-75
2022/01/06 10:41:59;;;;;;;0.60;0.60;;;;;;;21.10;37.36;99331.39;1868726;76;28154;-74
2022/01/06 10:44:51;;;;;;;0.90;0.60;;;;;;;21.12;37.42;99331.19;1877824;75;28267;-75
2022/01/06 10:47:49;;;;;;;0.60;0.60;;;;;;;21.13;37.41;99330.10;1892520;75;28527;-74
2022/01/06 10:50:39;;;;;;;0.70;0.70;;;;;;;21.06;37.48;99334.81;1899244;75;28056;-75
2022/01/06 10:53:28;;;;;;;0.45;0.40;;;;;;;21.06;37.52;99326.61;1871396;75;28528;-75
2022/01/06 10:56:23;;;;;;;0.70;0.70;;;;;;;21.05;37.58;99325.77;1877568;75;28087;-75
2022/01/06 10:59:16;;;;;;;0.50;0.50;;;;;;;21.06;37.56;99337.54;1890409;75;28153;-74
2022/01/06 11:02:06;;;;;;;0.50;0.50;;;;;;;21.11;37.58;99327.61;1880061;75;28135;-76
2022/01/06 11:04:55;;;;;;;0.70;0.70;;;;;;;21.12;37.56;99332.55;1886830;75;28145;-75
2022/01/06 11:07:44;;;;;;;0.57;0.57;;;;;;;21.10;37.57;99330.55;1868839;76;28214;-74
2022/01/06 11:10:45;;;;;;;0.70;0.60;;;;;;;21.06;37.62;99323.36;1891947;75;28145;-74
2022/01/06 11:13:28;;;;;;;0.40;0.40;;;;;;;21.07;37.64;99325.05;1890336;75;28097;-74
2022/01/06 11:16:19;;;;;;;0.60;0.60;;;;;;;21.09;37.61;99326.17;1898064;75;28269;-75
2022/01/06 11:19:09;;;;;;;0.70;0.70;;;;;;;21.06;37.63;99325.25;1898147;75;28154;-75
2022/01/06 11:22:02;;;;;;;0.60;0.60;;;;;;;21.05;37.68;99330.42;1894868;75;28091;-74
2022/01/06 11:25:05;;;;;;;0.70;0.50;;;;;;;21.09;37.61;99327.53;1890624;75;28145;-74
2022/01/06 11:28:06;;;;;;;0.60;0.60;;;;;;;21.09;37.62;99328.90;1901752;75;28123;-74
2022/01/06 11:30:57;;;;;;;2.00;0.60;;;;;;;21.02;37.67;99329.48;1868689;76;28156;-74
2022/01/06 11:33:47;;;;;;;0.85;0.60;;;;;;;21.04;37.75;99331.44;1868650;76;28186;-75
2022/01/06 11:36:36;;;;;;;0.57;0.57;;;;;;;21.09;37.67;99334.36;1890666;75;28154;-74
2022/01/06 11:39:30;;;;;;;0.68;0.68;;;;;;;21.12;37.59;99336.64;1876173;75;28200;-75
2022/01/06 11:42:23;;;;;;;0.65;0.60;;;;;;;21.09;37.60;99334.36;1868784;76;28266;-74
2022/01/06 11:45:13;;;;;;;0.60;0.60;;;;;;;21.10;37.56;99331.91;1871532;75;28225;-74
2022/01/06 11:48:09;;;;;;;0.50;0.50;;;;;;;21.11;37.56;99330.86;1878258;75;28162;-74
2022/01/06 11:50:57;;;;;;;0.60;0.60;;;;;;;21.09;37.61;99342.03;1887196;75;28550;-75
2022/01/06 11:53:46;;;;;;;1.13;0.70;;;;;;;21.05;37.62;99341.35;1888573;75;28060;-74
2022/01/06 11:56:37;;;;;;;0.62;0.62;;;;;;;21.09;37.60;99336.56;1876623;75;28170;-74
2022/01/06 11:59:31;;;;;;;0.50;0.50;;;;;;;21.10;37.61;99336.85;1889035;75;28123;-76
2022/01/06 12:02:23;;;;;;;0.50;0.50;;;;;;;21.11;37.59;99331.70;1874807;75;28173;-74
2022/01/06 12:05:13;;;;;;;0.62;0.62;;;;;;;21.14;37.57;99333.95;1869728;75;28108;-73
2022/01/06 12:08:03;;;;;;;1.52;0.47;;;;;;;21.14;37.50;99338.61;1867909;76;28159;-74
2022/01/06 12:10:52;;;;;;;0.63;0.63;;;;;;;21.13;37.48;99336.93;1864686;75;28103;-74
2022/01/06 12:13:45;;;;;;;0.60;0.60;;;;;;;21.10;37.56;99330.02;1879282;75;28093;-76
2022/01/06 12:16:45;;;;;;;0.62;0.62;;;;;;;21.13;37.52;99330.94;1856792;77;33136;-74
2022/01/06 12:19:30;;;;;;;2.10;0.60;;;;;;;21.14;37.47;99325.77;1872719;75;28228;-75
2022/01/06 12:22:24;;;;;;;0.70;0.70;;;;;;;21.10;37.54;99335.48;1888470;74;28127;-75
2022/01/06 12:25:11;;;;;;;0.50;0.50;;;;;;;21.11;37.55;99335.80;1900315;75;28141;-74
2022/01/06 12:27:59;;;;;;;0.60;0.60;;;;;;;21.12;37.54;99329.81;1868961;75;28154;-73
2022/01/06 12:30:49;;;;;;;0.40;0.40;;;;;;;21.12;37.49;99330.63;1894688;75;28095;-74
2022/01/06 12:33:47;;;;;;;0.60;0.60;;;;;;;21.11;37.44;99330.34;1889148;75;28120;-73
2022/01/06 12:36:42;;;;;;;0.50;0.50;;;;;;;21.14;37.52;99339.98;1877728;75;28255;-74
2022/01/06 12:39:28;;;;;;;0.62;0.62;;;;;;;21.09;37.45;99336.56;1874509;75;28089;-74
2022/01/06 12:42:17;;;;;;;0.72;0.50;;;;;;;21.09;37.50;99328.90;1869944;75;28189;-74
2022/01/06 12:45:11;;;;;;;0.60;0.60;;;;;;;21.11;37.44;99329.50;1897870;75;28098;-74
2022/01/06 12:47:59;;;;;;;1.00;0.70;;;;;;;21.11;37.50;99329.50;1868646;76;28095;-74
2022/01/06 12:50:49;;;;;;;0.70;0.70;;;;;;;21.11;37.46;99328.97;1868198;76;28175;-74
2022/01/06 12:53:41;;;;;;;0.57;0.57;;;;;;;21.12;37.44;99321.06;1883657;75;28184;-74
2022/01/06 12:56:44;;;;;;;0.70;0.70;;;;;;;21.10;37.43;99312.27;1879059;75;28096;-74
2022/01/06 12:59:45;;;;;;;0.80;0.80;;;;;;;21.11;37.43;99312.59;1890264;75;28205;-74
2022/01/06 13:02:26;;;;;;;0.72;0.72;;;;;;;21.08;37.44;99315.77;1888629;75;28108;-75
2022/01/06 13:05:16;;;;;;;0.90;0.90;;;;;;;21.05;37.54;99312.12;1891506;75;28166;-74
2022/01/06 13:08:06;;;;;;;1.07;1.07;;;;;;;21.08;37.52;99313.03;1880942;75;28102;-75
2022/01/06 13:11:06;;;;;;;1.10;1.00;;;;;;;21.11;37.43;99313.11;1897263;75;28196;-74
2022/01/06 13:13:58;;;;;;;1.00;1.00;;;;;;;21.11;37.40;99307.66;1898376;75;28188;-74
2022/01/06 13:16:46;;;;;;;1.00;1.00;;;;;;;21.12;37.44;99307.41;1874060;75;28299;-74
2022/01/06 13:19:36;;;;;;;1.27;1.17;;;;;;;21.07;37.37;99305.08;1892121;75;28216;-74
2022/01/06 13:25:41;;;;;;;1.10;1.10;;;;;;;21.09;37.40;99304.32;1866976;76;28242;-74
2022/01/06 13:28:31;;;;;;;1.10;1.10;;;;;;;21.05;37.46;99303.12;1875227;75;28142;-73